createdAt,value
2017-11-07T00:00:44.772Z,47.7
2017-11-07T00:01:46.594Z,47.6
2017-11-07T00:02:48.410Z,47.6
2017-11-07T00:03:49.879Z,48
2017-11-07T00:04:52.042Z,48
2017-11-07T00:05:54.204Z,47.8
2017-11-07T00:06:56.365Z,48.2
2017-11-07T00:07:58.163Z,48.1
2017-11-07T00:08:59.959Z,47.9
2017-11-07T00:10:01.764Z,48
2017-11-07T00:11:03.215Z,47.9
2017-11-07T00:12:04.686Z,47.6
2017-11-07T00:13:06.140Z,47.6
2017-11-07T00:14:07.668Z,47.6
2017-11-07T00:15:09.486Z,47.9
2017-11-07T00:16:10.963Z,47.8
2017-11-07T00:17:13.125Z,47.6
2017-11-07T00:18:14.939Z,47.6
2017-11-07T00:19:16.823Z,47.9
2017-11-07T00:20:18.995Z,47.5
2017-11-07T00:21:20.461Z,48
2017-11-07T00:22:22.307Z,47.6
2017-11-07T00:23:24.130Z,48
2017-11-07T00:24:26.287Z,48
2017-11-07T00:25:28.452Z,47.8
2017-11-07T00:26:30.269Z,47.9
2017-11-07T00:27:32.089Z,48.2
2017-11-07T00:28:34.250Z,47.8
2017-11-07T00:29:36.083Z,47.7
2017-11-07T00:30:37.537Z,47.8
2017-11-07T00:31:39.718Z,47.8
2017-11-07T00:32:41.533Z,47.6
2017-11-07T00:33:43.713Z,47.8
2017-11-07T00:34:45.872Z,47.6
2017-11-07T00:35:47.740Z,47.6
2017-11-07T00:36:49.903Z,47.7
2017-11-07T00:37:51.378Z,47.8
2017-11-07T00:38:53.197Z,47.9
2017-11-07T00:39:55.375Z,47.9
2017-11-07T00:40:57.183Z,47.9
2017-11-07T00:41:58.993Z,47.7
2017-11-07T00:43:00.793Z,47.9
2017-11-07T00:44:02.590Z,47.7
2017-11-07T00:45:04.752Z,48.1
2017-11-07T00:46:06.205Z,47.6
2017-11-07T00:47:08.023Z,47.5
2017-11-07T00:48:09.843Z,47.7
2017-11-07T00:49:11.297Z,47.6
2017-11-07T00:50:13.466Z,47.8
2017-11-07T00:51:14.931Z,47.9
2017-11-07T00:52:16.754Z,48
2017-11-07T00:53:18.552Z,48
2017-11-07T00:54:20.003Z,48
2017-11-07T00:55:22.164Z,47.7
2017-11-07T00:56:23.985Z,47.5
2017-11-07T00:57:25.804Z,48.1
2017-11-07T00:58:27.257Z,47.9
2017-11-07T00:59:28.733Z,47.8
2017-11-07T01:00:30.573Z,47.6
2017-11-07T01:01:32.055Z,47.9
2017-11-07T01:02:34.217Z,47.9
2017-11-07T01:03:36.033Z,48
2017-11-07T01:04:37.860Z,47.7
2017-11-07T01:05:40.016Z,47.7
2017-11-07T01:06:42.178Z,47.7
2017-11-07T01:07:43.978Z,47.9
2017-11-07T01:08:45.429Z,47.9
2017-11-07T01:09:46.880Z,47.7
2017-11-07T01:10:48.701Z,47.8
2017-11-07T01:11:50.152Z,47.7
2017-11-07T01:12:52.317Z,47.6
2017-11-07T01:13:54.133Z,47.5
2017-11-07T01:14:55.240Z,47.6
2017-11-07T01:15:57.081Z,47.8
2017-11-07T01:16:58.553Z,47.7
2017-11-07T01:18:00.005Z,47.8
2017-11-07T01:19:01.804Z,47.7
2017-11-07T01:20:03.626Z,47.9
2017-11-07T01:21:05.443Z,47.8
2017-11-07T01:22:07.636Z,47.8
2017-11-07T01:23:09.804Z,47.5
2017-11-07T01:24:10.914Z,47.6
2017-11-07T01:25:13.078Z,47.7
2017-11-07T01:26:15.241Z,48.2
2017-11-07T01:27:17.060Z,47.7
2017-11-07T01:28:18.875Z,48.1
2017-11-07T01:29:21.082Z,47.7
2017-11-07T01:30:23.242Z,47.9
2017-11-07T01:31:24.720Z,48
2017-11-07T01:32:26.168Z,48.2
2017-11-07T01:33:27.299Z,47.6
2017-11-07T01:34:29.096Z,47.8
2017-11-07T01:35:30.911Z,47.7
2017-11-07T01:36:32.736Z,47.6
2017-11-07T01:37:34.189Z,47.9
2017-11-07T01:38:35.364Z,47.8
2017-11-07T01:39:36.838Z,47.7
2017-11-07T01:40:38.312Z,47.7
2017-11-07T01:41:40.132Z,47.8
2017-11-07T01:42:41.927Z,47.6
2017-11-07T01:43:44.088Z,47.8
2017-11-07T01:44:45.540Z,47.6
2017-11-07T01:45:46.991Z,48
2017-11-07T01:46:48.809Z,47.8
2017-11-07T01:47:50.300Z,47.9
2017-11-07T01:48:52.110Z,47.7
2017-11-07T01:49:53.898Z,47.9
2017-11-07T01:50:56.083Z,47.9
2017-11-07T01:51:57.535Z,47.8
2017-11-07T01:52:59.695Z,47.9
2017-11-07T01:54:01.512Z,48
2017-11-07T01:55:03.329Z,47.9
2017-11-07T01:56:04.457Z,47.7
2017-11-07T01:57:06.253Z,47.8
2017-11-07T01:58:08.050Z,47.9
2017-11-07T01:59:09.867Z,47.8
2017-11-07T02:00:12.030Z,47.8
2017-11-07T02:01:13.844Z,48.1
2017-11-07T02:02:15.316Z,47.8
2017-11-07T02:03:16.764Z,47.4
2017-11-07T02:04:18.928Z,47.9
2017-11-07T02:05:21.087Z,47.3
2017-11-07T02:06:23.248Z,47.7
2017-11-07T02:07:24.698Z,47.8
2017-11-07T02:08:26.521Z,47.9
2017-11-07T02:09:28.312Z,47.8
2017-11-07T02:10:29.782Z,47.8
2017-11-07T02:11:31.601Z,47.7
2017-11-07T02:12:33.077Z,47.7
2017-11-07T02:13:34.899Z,47.7
2017-11-07T02:14:36.349Z,47.8
2017-11-07T02:15:38.518Z,47.8
2017-11-07T02:16:40.329Z,47.3
2017-11-07T02:17:41.785Z,47.4
2017-11-07T02:18:43.945Z,47.7
2017-11-07T02:19:45.765Z,47.7
2017-11-07T02:20:47.583Z,47.7
2017-11-07T02:21:49.053Z,47.4
2017-11-07T02:22:50.872Z,47.7
2017-11-07T02:23:53.032Z,47.6
2017-11-07T02:24:54.849Z,47.5
2017-11-07T02:25:56.645Z,48
2017-11-07T02:26:58.096Z,47.7
2017-11-07T02:27:59.584Z,47.7
2017-11-07T02:29:01.057Z,47.6
2017-11-07T02:30:03.223Z,47.3
2017-11-07T02:31:05.386Z,47.5
2017-11-07T02:32:06.840Z,47.7
2017-11-07T02:33:08.667Z,47.3
2017-11-07T02:34:10.484Z,47.4
2017-11-07T02:35:12.328Z,47.7
2017-11-07T02:36:14.486Z,47.6
2017-11-07T02:37:16.648Z,47.7
2017-11-07T02:38:18.465Z,47.7
2017-11-07T02:39:20.262Z,47.7
2017-11-07T02:40:22.431Z,47.6
2017-11-07T02:41:23.900Z,47.6
2017-11-07T02:42:26.109Z,47.3
2017-11-07T02:43:28.272Z,47.5
2017-11-07T02:44:30.094Z,47.7
2017-11-07T02:45:32.255Z,47.4
2017-11-07T02:46:34.070Z,47.7
2017-11-07T02:47:36.233Z,47.6
2017-11-07T02:48:37.706Z,47.5
2017-11-07T02:49:39.159Z,47.4
2017-11-07T02:50:40.629Z,47.3
2017-11-07T02:51:42.788Z,47.6
2017-11-07T02:52:44.602Z,47.2
2017-11-07T02:53:45.713Z,47.4
2017-11-07T02:54:47.877Z,47.6
2017-11-07T02:55:49.331Z,47.5
2017-11-07T02:56:51.490Z,47.5
2017-11-07T02:57:53.305Z,47.6
2017-11-07T02:58:55.125Z,47.6
2017-11-07T02:59:56.574Z,47.6
2017-11-07T03:00:58.388Z,47.6
2017-11-07T03:02:00.551Z,47.4
2017-11-07T03:03:02.343Z,47.5
2017-11-07T03:04:03.796Z,47.5
2017-11-07T03:05:05.957Z,47.7
2017-11-07T03:06:07.752Z,47.5
2017-11-07T03:07:09.550Z,47.6
2017-11-07T03:08:10.652Z,47.3
2017-11-07T03:09:12.813Z,47.4
2017-11-07T03:10:14.637Z,47.6
2017-11-07T03:11:16.798Z,47.5
2017-11-07T03:12:17.940Z,47.7
2017-11-07T03:13:20.093Z,47.3
2017-11-07T03:14:21.566Z,47.7
2017-11-07T03:15:23.017Z,47.5
2017-11-07T03:16:25.179Z,47.7
2017-11-07T03:17:27.343Z,47.5
2017-11-07T03:18:29.154Z,47.3
2017-11-07T03:19:30.260Z,47.2
2017-11-07T03:20:31.712Z,47.4
2017-11-07T03:21:33.873Z,47.3
2017-11-07T03:22:35.344Z,47.3
2017-11-07T03:23:36.818Z,47.5
2017-11-07T03:24:38.980Z,47.2
2017-11-07T03:25:40.779Z,47.6
2017-11-07T03:26:42.593Z,47.4
2017-11-07T03:27:44.389Z,47.3
2017-11-07T03:28:45.863Z,47.5
2017-11-07T03:29:47.655Z,47.5
2017-11-07T03:30:49.473Z,47.6
2017-11-07T03:31:51.288Z,47.2
2017-11-07T03:32:52.790Z,47.5
2017-11-07T03:33:54.952Z,47.3
2017-11-07T03:34:57.110Z,47.5
2017-11-07T03:35:58.562Z,47.3
2017-11-07T03:37:00.379Z,47.2
2017-11-07T03:38:02.547Z,47.5
2017-11-07T03:39:03.306Z,47.3
2017-11-07T03:40:05.469Z,47.5
2017-11-07T03:41:07.289Z,47.4
2017-11-07T03:42:09.107Z,47.2
2017-11-07T03:43:10.946Z,47.2
2017-11-07T03:44:13.109Z,47
2017-11-07T03:45:14.221Z,47.2
2017-11-07T03:46:16.013Z,47.3
2017-11-07T03:47:17.834Z,47.3
2017-11-07T03:48:19.309Z,47.3
2017-11-07T03:49:21.468Z,47.2
2017-11-07T03:50:23.636Z,47.2
2017-11-07T03:51:25.446Z,46.9
2017-11-07T03:52:27.241Z,46.9
2017-11-07T03:53:29.401Z,47.2
2017-11-07T03:54:31.196Z,47
2017-11-07T03:55:33.356Z,47
2017-11-07T03:56:34.833Z,47
2017-11-07T03:57:36.677Z,47
2017-11-07T03:58:38.151Z,46.9
2017-11-07T03:59:40.311Z,47
2017-11-07T04:00:41.761Z,47
2017-11-07T04:01:43.921Z,47.1
2017-11-07T04:02:45.736Z,47.3
2017-11-07T04:03:47.209Z,47
2017-11-07T04:04:49.008Z,47
2017-11-07T04:05:50.828Z,46.9
2017-11-07T04:06:52.641Z,47.1
2017-11-07T04:07:54.091Z,47.2
2017-11-07T04:08:56.252Z,47.1
2017-11-07T04:09:57.703Z,47
2017-11-07T04:10:58.832Z,47
2017-11-07T04:12:00.288Z,47.1
2017-11-07T04:13:02.106Z,47.1
2017-11-07T04:14:03.924Z,47.1
2017-11-07T04:15:05.057Z,47.1
2017-11-07T04:16:06.850Z,47.1
2017-11-07T04:17:07.977Z,47.1
2017-11-07T04:18:09.780Z,47.1
2017-11-07T04:19:11.591Z,47
2017-11-07T04:20:13.410Z,47.2
2017-11-07T04:21:15.569Z,47.1
2017-11-07T04:22:17.751Z,47
2017-11-07T04:23:19.548Z,47.1
2017-11-07T04:24:21.415Z,47.2
2017-11-07T04:25:23.236Z,46.9
2017-11-07T04:26:25.057Z,47
2017-11-07T04:27:26.873Z,47.3
2017-11-07T04:28:28.743Z,47
2017-11-07T04:29:30.559Z,47.1
2017-11-07T04:30:32.034Z,47.2
2017-11-07T04:31:34.194Z,47.2
2017-11-07T04:32:35.679Z,47.3
2017-11-07T04:33:37.841Z,46.9
2017-11-07T04:34:39.314Z,47.1
2017-11-07T04:35:40.425Z,46.8
2017-11-07T04:36:42.581Z,47.2
2017-11-07T04:37:44.378Z,46.9
2017-11-07T04:38:46.547Z,47.1
2017-11-07T04:39:48.344Z,46.8
2017-11-07T04:40:50.503Z,47.2
2017-11-07T04:41:52.665Z,47.1
2017-11-07T04:42:54.480Z,46.9
2017-11-07T04:43:56.642Z,47.1
2017-11-07T04:44:58.450Z,47
2017-11-07T04:46:00.244Z,47
2017-11-07T04:47:02.405Z,47.1
2017-11-07T04:48:03.857Z,47.2
2017-11-07T04:49:05.676Z,46.8
2017-11-07T04:50:07.837Z,47
2017-11-07T04:51:09.311Z,47.2
2017-11-07T04:52:10.761Z,47.1
2017-11-07T04:53:12.559Z,46.8
2017-11-07T04:54:14.008Z,47.1
2017-11-07T04:55:15.830Z,47.2
2017-11-07T04:56:17.988Z,47.1
2017-11-07T04:57:19.810Z,47.2
2017-11-07T04:58:21.255Z,47.2
2017-11-07T04:59:23.073Z,47
2017-11-07T05:00:25.234Z,47
2017-11-07T05:01:27.049Z,47
2017-11-07T05:02:28.502Z,46.9
2017-11-07T05:03:30.305Z,46.9
2017-11-07T05:04:31.778Z,46.8
2017-11-07T05:05:33.664Z,46.8
2017-11-07T05:06:35.824Z,47.3
2017-11-07T05:07:37.984Z,46.8
2017-11-07T05:08:39.812Z,47.3
2017-11-07T05:09:41.979Z,47
2017-11-07T05:10:43.838Z,47.1
2017-11-07T05:11:45.657Z,47
2017-11-07T05:12:47.472Z,46.8
2017-11-07T05:13:49.633Z,47
2017-11-07T05:14:51.795Z,47.1
2017-11-07T05:15:53.254Z,47.2
2017-11-07T05:16:55.072Z,46.9
2017-11-07T05:17:57.232Z,47
2017-11-07T05:18:58.715Z,47
2017-11-07T05:20:00.531Z,47
2017-11-07T05:21:02.712Z,47.3
2017-11-07T05:22:03.808Z,47.2
2017-11-07T05:23:05.970Z,47
2017-11-07T05:24:08.136Z,47.1
2017-11-07T05:25:09.596Z,47.2
2017-11-07T05:26:11.384Z,47.2
2017-11-07T05:27:13.198Z,47.1
2017-11-07T05:28:15.359Z,47.4
2017-11-07T05:29:17.177Z,47.2
2017-11-07T05:30:19.338Z,46.7
2017-11-07T05:31:20.103Z,47.4
2017-11-07T05:32:22.265Z,47.2
2017-11-07T05:33:24.080Z,46.9
2017-11-07T05:34:25.897Z,47.1
2017-11-07T05:35:28.057Z,47
2017-11-07T05:36:29.875Z,46.8
2017-11-07T05:37:32.035Z,47
2017-11-07T05:38:33.832Z,46.9
2017-11-07T05:39:35.996Z,46.9
2017-11-07T05:40:38.198Z,47
2017-11-07T05:41:40.015Z,46.8
2017-11-07T05:42:41.487Z,47.2
2017-11-07T05:43:43.308Z,47.2
2017-11-07T05:44:45.466Z,47.1
2017-11-07T05:45:47.292Z,47.1
2017-11-07T05:46:48.779Z,46.9
2017-11-07T05:47:50.597Z,47.2
2017-11-07T05:48:52.416Z,47
2017-11-07T05:49:54.579Z,47.1
2017-11-07T05:50:56.033Z,46.9
2017-11-07T05:51:57.485Z,47.3
2017-11-07T05:52:59.305Z,47.1
2017-11-07T05:54:01.468Z,47.1
2017-11-07T05:55:03.638Z,47.2
2017-11-07T05:56:05.111Z,46.9
2017-11-07T05:57:06.928Z,47
2017-11-07T05:58:09.089Z,46.9
2017-11-07T05:59:11.251Z,47
2017-11-07T06:00:13.409Z,47
2017-11-07T06:01:14.885Z,46.9
2017-11-07T06:02:17.046Z,46.9
2017-11-07T06:03:18.496Z,46.9
2017-11-07T06:04:20.289Z,47
2017-11-07T06:05:22.106Z,47
2017-11-07T06:06:23.576Z,47
2017-11-07T06:07:25.374Z,47.1
2017-11-07T06:08:26.501Z,47
2017-11-07T06:09:28.664Z,47.1
2017-11-07T06:10:30.824Z,47
2017-11-07T06:11:32.985Z,46.8
2017-11-07T06:12:35.144Z,47
2017-11-07T06:13:36.963Z,47.1
2017-11-07T06:14:38.780Z,46.9
2017-11-07T06:15:40.945Z,46.9
2017-11-07T06:16:43.105Z,47
2017-11-07T06:17:45.266Z,47
2017-11-07T06:18:47.442Z,46.9
2017-11-07T06:19:48.552Z,46.8
2017-11-07T06:20:50.000Z,47
2017-11-07T06:21:51.473Z,47.1
2017-11-07T06:22:53.291Z,47
2017-11-07T06:23:55.454Z,47
2017-11-07T06:24:57.275Z,46.8
2017-11-07T06:25:59.093Z,46.9
2017-11-07T06:27:00.913Z,47.1
2017-11-07T06:28:02.736Z,46.9
2017-11-07T06:29:04.557Z,47.2
2017-11-07T06:30:06.716Z,47
2017-11-07T06:31:08.538Z,47
2017-11-07T06:32:10.376Z,47.1
2017-11-07T06:33:12.174Z,47.2
2017-11-07T06:34:13.991Z,46.9
2017-11-07T06:35:16.156Z,46.9
2017-11-07T06:36:17.952Z,47
2017-11-07T06:37:19.419Z,47
2017-11-07T06:38:21.237Z,47
2017-11-07T06:39:23.054Z,47
2017-11-07T06:40:24.526Z,47
2017-11-07T06:41:25.977Z,47
2017-11-07T06:42:27.831Z,46.9
2017-11-07T06:43:29.281Z,47.1
2017-11-07T06:44:31.457Z,46.9
2017-11-07T06:45:32.913Z,47
2017-11-07T06:46:35.085Z,47
2017-11-07T06:47:36.903Z,46.7
2017-11-07T06:48:39.063Z,46.7
2017-11-07T06:49:40.172Z,46.8
2017-11-07T06:50:41.994Z,46.8
2017-11-07T06:51:44.155Z,46.8
2017-11-07T06:52:45.614Z,46.8
2017-11-07T06:53:47.788Z,46.8
2017-11-07T06:54:49.591Z,46.8
2017-11-07T06:55:51.067Z,46.9
2017-11-07T06:56:52.907Z,47
2017-11-07T06:57:54.707Z,47
2017-11-07T06:58:56.164Z,47
2017-11-07T06:59:57.965Z,47.1
2017-11-07T07:00:59.075Z,46.8
2017-11-07T07:02:01.236Z,47
2017-11-07T07:03:03.414Z,47
2017-11-07T07:04:05.608Z,47
2017-11-07T07:05:07.429Z,46.9
2017-11-07T07:06:08.918Z,46.9
2017-11-07T07:07:10.371Z,46.8
2017-11-07T07:08:12.543Z,47
2017-11-07T07:09:14.359Z,47
2017-11-07T07:10:15.835Z,47.1
2017-11-07T07:11:16.946Z,46.8
2017-11-07T07:12:18.421Z,47.1
2017-11-07T07:13:20.238Z,46.9
2017-11-07T07:14:22.403Z,46.9
2017-11-07T07:15:23.853Z,46.9
2017-11-07T07:16:26.015Z,46.8
2017-11-07T07:17:27.474Z,47
2017-11-07T07:18:29.292Z,47.1
2017-11-07T07:19:31.114Z,47.1
2017-11-07T07:20:32.939Z,47
2017-11-07T07:21:34.395Z,47
2017-11-07T07:22:36.560Z,47
2017-11-07T07:23:38.035Z,46.8
2017-11-07T07:24:39.833Z,46.9
2017-11-07T07:25:41.998Z,46.9
2017-11-07T07:26:43.114Z,46.9
2017-11-07T07:27:44.571Z,46.9
2017-11-07T07:28:46.050Z,47.1
2017-11-07T07:29:48.213Z,47
2017-11-07T07:30:49.691Z,46.9
2017-11-07T07:31:51.148Z,46.9
2017-11-07T07:32:52.965Z,46.9
2017-11-07T07:33:54.789Z,47
2017-11-07T07:34:56.261Z,47
2017-11-07T07:35:57.374Z,47
2017-11-07T07:36:59.196Z,47.1
2017-11-07T07:38:01.359Z,47
2017-11-07T07:39:03.182Z,47.1
2017-11-07T07:40:04.657Z,47.2
2017-11-07T07:41:06.824Z,47.1
2017-11-07T07:42:08.621Z,47
2017-11-07T07:43:10.076Z,47
2017-11-07T07:44:12.238Z,47.2
2017-11-07T07:45:14.403Z,47
2017-11-07T07:46:16.229Z,47.2
2017-11-07T07:47:18.022Z,47.1
2017-11-07T07:48:19.845Z,47.1
2017-11-07T07:49:20.979Z,47
2017-11-07T07:50:22.436Z,47.2
2017-11-07T07:51:24.259Z,47
2017-11-07T07:52:25.749Z,47
2017-11-07T07:53:27.199Z,47.2
2017-11-07T07:54:29.022Z,47.3
2017-11-07T07:55:31.283Z,47.2
2017-11-07T07:56:32.741Z,47.2
2017-11-07T07:57:34.192Z,47.2
2017-11-07T07:58:36.012Z,47.5
2017-11-07T07:59:37.833Z,47.2
2017-11-07T08:00:39.631Z,47.2
2017-11-07T08:01:41.871Z,47.2
2017-11-07T08:02:43.329Z,47.3
2017-11-07T08:03:45.128Z,47.4
2017-11-07T08:04:46.964Z,47.2
2017-11-07T08:05:48.782Z,46.9
2017-11-07T08:06:50.581Z,47
2017-11-07T08:07:52.036Z,47.2
2017-11-07T08:08:54.197Z,47.2
2017-11-07T08:09:55.997Z,47.2
2017-11-07T08:10:57.451Z,47.2
2017-11-07T08:11:58.931Z,47.2
2017-11-07T08:13:00.780Z,47.1
2017-11-07T08:14:02.233Z,47.3
2017-11-07T08:15:04.033Z,47
2017-11-07T08:16:06.196Z,47
2017-11-07T08:17:08.360Z,47.2
2017-11-07T08:18:09.474Z,47.2
2017-11-07T08:19:11.291Z,47.1
2017-11-07T08:20:13.109Z,47.2
2017-11-07T08:21:15.277Z,47.3
2017-11-07T08:22:17.443Z,47.2
2017-11-07T08:23:18.210Z,47.3
2017-11-07T08:24:20.032Z,47.2
2017-11-07T08:25:21.508Z,47.2
2017-11-07T08:26:22.988Z,47.2
2017-11-07T08:27:24.464Z,47.2
2017-11-07T08:28:26.265Z,47.1
2017-11-07T08:29:28.063Z,47
2017-11-07T08:30:29.543Z,47.2
2017-11-07T08:31:31.364Z,47.3
2017-11-07T08:32:32.476Z,47.2
2017-11-07T08:33:34.294Z,47.2
2017-11-07T08:34:35.752Z,47
2017-11-07T08:35:37.560Z,47.3
2017-11-07T08:36:39.384Z,47.3
2017-11-07T08:37:41.199Z,47.3
2017-11-07T08:38:43.415Z,47.1
2017-11-07T08:39:45.236Z,47.2
2017-11-07T08:40:47.057Z,47
2017-11-07T08:41:48.853Z,47.2
2017-11-07T08:42:51.021Z,47.2
2017-11-07T08:43:52.477Z,47.1
2017-11-07T08:44:54.299Z,47.3
2017-11-07T08:45:56.114Z,47.2
2017-11-07T08:46:57.586Z,47.2
2017-11-07T08:47:59.406Z,47.2
2017-11-07T08:49:01.223Z,47.3
2017-11-07T08:50:02.674Z,47.2
2017-11-07T08:51:04.836Z,47.1
2017-11-07T08:52:06.636Z,47.3
2017-11-07T08:53:08.092Z,47.7
2017-11-07T08:54:09.912Z,47.2
2017-11-07T08:55:11.731Z,47.5
2017-11-07T08:56:13.205Z,47.6
2017-11-07T08:57:15.384Z,47.6
2017-11-07T08:58:16.851Z,47.7
2017-11-07T08:59:19.101Z,47.4
2017-11-07T09:00:21.283Z,47.6
2017-11-07T09:01:22.786Z,47.5
2017-11-07T09:02:24.608Z,47.7
2017-11-07T09:03:26.082Z,47.7
2017-11-07T09:04:27.922Z,47.6
2017-11-07T09:05:29.717Z,47.7
2017-11-07T09:06:30.492Z,47.6
2017-11-07T09:07:32.310Z,47.6
2017-11-07T09:08:34.480Z,47.6
2017-11-07T09:09:36.041Z,47.7
2017-11-07T09:10:38.210Z,47.6
2017-11-07T09:11:39.330Z,47.6
2017-11-07T09:12:40.787Z,47.5
2017-11-07T09:13:42.678Z,47.6
2017-11-07T09:14:44.096Z,47.5
2017-11-07T09:15:45.209Z,47.6
2017-11-07T09:16:47.042Z,47.7
2017-11-07T09:17:48.600Z,47.5
2017-11-07T09:18:50.619Z,47.4
2017-11-07T09:19:51.905Z,47.5
2017-11-07T09:20:53.726Z,47.5
2017-11-07T09:21:55.214Z,47.7
2017-11-07T09:22:57.533Z,47.7
2017-11-07T09:23:59.356Z,47.1
2017-11-07T09:25:01.191Z,47.3
2017-11-07T09:26:02.306Z,47.3
2017-11-07T09:27:03.408Z,47.3
2017-11-07T09:28:05.228Z,47.3
2017-11-07T09:29:07.045Z,47.4
2017-11-07T09:30:08.949Z,47.5
2017-11-07T09:31:10.602Z,47.4
2017-11-07T09:32:11.719Z,47.7
2017-11-07T09:33:13.539Z,47.5
2017-11-07T09:34:14.989Z,47
2017-11-07T09:35:17.150Z,47.5
2017-11-07T09:36:18.606Z,47.6
2017-11-07T09:37:20.422Z,47.2
2017-11-07T09:38:22.224Z,47.5
2017-11-07T09:39:23.675Z,47.6
2017-11-07T09:40:25.558Z,47.6
2017-11-07T09:41:27.362Z,47.7
2017-11-07T09:42:29.589Z,47.3
2017-11-07T09:43:31.754Z,47.2
2017-11-07T09:44:32.866Z,47.7
2017-11-07T09:45:35.033Z,47.2
2017-11-07T09:46:36.488Z,47.6
2017-11-07T09:47:37.595Z,47.6
2017-11-07T09:48:39.389Z,47.6
2017-11-07T09:49:41.552Z,47.5
2017-11-07T09:50:43.422Z,47.6
2017-11-07T09:51:45.247Z,47.5
2017-11-07T09:52:47.412Z,47.6
2017-11-07T09:53:49.573Z,47.5
2017-11-07T09:54:51.025Z,47.4
2017-11-07T09:55:52.841Z,47.6
2017-11-07T09:56:54.658Z,47.6
2017-11-07T09:57:56.828Z,47.6
2017-11-07T09:58:58.279Z,47.6
2017-11-07T10:00:00.097Z,47.6
2017-11-07T10:01:01.206Z,47.6
2017-11-07T10:02:03.379Z,47.3
2017-11-07T10:03:05.542Z,47.6
2017-11-07T10:04:07.702Z,47.5
2017-11-07T10:05:09.525Z,47.5
2017-11-07T10:06:11.697Z,47.7
2017-11-07T10:07:13.860Z,47.7
2017-11-07T10:08:15.658Z,47.4
2017-11-07T10:09:17.817Z,47.6
2017-11-07T10:10:19.979Z,47.1
2017-11-07T10:11:22.141Z,47.5
2017-11-07T10:12:23.655Z,47.4
2017-11-07T10:13:25.474Z,47.5
2017-11-07T10:14:27.293Z,47.5
2017-11-07T10:15:28.746Z,47.4
2017-11-07T10:16:29.866Z,47.6
2017-11-07T10:17:31.662Z,47.6
2017-11-07T10:18:33.821Z,47.5
2017-11-07T10:19:35.294Z,47.5
2017-11-07T10:20:37.460Z,47.6
2017-11-07T10:21:39.281Z,47.5
2017-11-07T10:22:41.447Z,47.7
2017-11-07T10:23:42.578Z,47.4
2017-11-07T10:24:44.395Z,47.3
2017-11-07T10:25:45.847Z,47.5
2017-11-07T10:26:47.398Z,47.7
2017-11-07T10:27:49.224Z,47.7
2017-11-07T10:28:51.382Z,47.6
2017-11-07T10:29:53.546Z,47.6
2017-11-07T10:30:55.708Z,47.6
2017-11-07T10:31:57.164Z,47.5
2017-11-07T10:32:58.616Z,47.5
2017-11-07T10:34:00.068Z,47.6
2017-11-07T10:35:01.888Z,47.3
2017-11-07T10:36:03.705Z,47.4
2017-11-07T10:37:05.919Z,47.6
2017-11-07T10:38:07.752Z,47.5
2017-11-07T10:39:09.219Z,47.6
2017-11-07T10:40:11.039Z,47.7
2017-11-07T10:41:12.561Z,47.5
2017-11-07T10:42:14.945Z,48
2017-11-07T10:43:16.799Z,47.9
2017-11-07T10:44:19.599Z,47.9
2017-11-07T10:45:21.085Z,47.7
2017-11-07T10:46:23.263Z,47.7
2017-11-07T10:47:25.431Z,48.1
2017-11-07T10:48:26.570Z,47.6
2017-11-07T10:49:28.734Z,47.8
2017-11-07T10:50:30.214Z,48
2017-11-07T10:51:32.380Z,47.6
2017-11-07T10:52:34.289Z,47.9
2017-11-07T10:53:36.117Z,47.5
2017-11-07T10:54:37.602Z,47.4
2017-11-07T10:55:39.563Z,47.3
2017-11-07T10:56:41.888Z,47.2
2017-11-07T10:57:43.023Z,47.3
2017-11-07T10:58:44.855Z,47.6
2017-11-07T10:59:45.991Z,47.7
2017-11-07T11:00:47.795Z,48
2017-11-07T11:01:49.352Z,47.4
2017-11-07T11:02:51.525Z,47.9
2017-11-07T11:03:52.992Z,48
2017-11-07T11:04:55.168Z,48.1
2017-11-07T11:05:56.650Z,47.8
2017-11-07T11:06:58.212Z,47.3
2017-11-07T11:08:00.030Z,47.7
2017-11-07T11:09:01.845Z,47.4
2017-11-07T11:10:03.668Z,47.3
2017-11-07T11:11:05.838Z,47.7
2017-11-07T11:12:07.773Z,47.3
2017-11-07T11:13:09.235Z,47.7
2017-11-07T11:14:10.697Z,47.5
2017-11-07T11:15:12.170Z,47.7
2017-11-07T11:16:13.627Z,47.6
2017-11-07T11:17:15.447Z,47.7
2017-11-07T11:18:16.920Z,47.4
2017-11-07T11:19:18.738Z,47.7
2017-11-07T11:20:20.902Z,47.6
2017-11-07T11:21:22.364Z,48
2017-11-07T11:22:24.528Z,47.9
2017-11-07T11:23:26.347Z,47.7
2017-11-07T11:24:27.803Z,47.7
2017-11-07T11:25:29.994Z,47.8
2017-11-07T11:26:31.105Z,47.8
2017-11-07T11:27:32.932Z,47.3
2017-11-07T11:28:35.096Z,47.3
2017-11-07T11:29:36.550Z,47.4
2017-11-07T11:30:38.406Z,47.7
2017-11-07T11:31:39.527Z,47.6
2017-11-07T11:32:40.985Z,47.3
2017-11-07T11:33:42.786Z,47.4
2017-11-07T11:34:44.956Z,47.7
2017-11-07T11:35:46.432Z,47.6
2017-11-07T11:36:48.269Z,47.6
2017-11-07T11:37:50.166Z,47.2
2017-11-07T11:38:52.395Z,47.4
2017-11-07T11:39:54.216Z,47.4
2017-11-07T11:40:55.672Z,47.6
2017-11-07T11:41:57.640Z,47.3
2017-11-07T11:42:59.182Z,47.6
2017-11-07T11:44:00.670Z,47.6
2017-11-07T11:45:02.841Z,47.4
2017-11-07T11:46:04.669Z,47.6
2017-11-07T11:47:06.251Z,47.6
2017-11-07T11:48:07.740Z,47.6
2017-11-07T11:49:09.915Z,47.2
2017-11-07T11:50:11.397Z,47.2
2017-11-07T11:51:12.517Z,47.5
2017-11-07T11:52:14.444Z,47.6
2017-11-07T11:53:16.289Z,47.2
2017-11-07T11:54:17.458Z,47.6
2017-11-07T11:55:19.637Z,47.5
2017-11-07T11:56:21.472Z,47.3
2017-11-07T11:57:22.692Z,47.6
2017-11-07T11:58:24.864Z,47.2
2017-11-07T11:59:26.343Z,47.7
2017-11-07T12:00:28.171Z,47.4
2017-11-07T12:01:28.951Z,47.4
2017-11-07T12:02:30.535Z,47.5
2017-11-07T12:03:31.328Z,47.2
2017-11-07T12:04:33.500Z,47.3
2017-11-07T12:05:35.304Z,47.4
2017-11-07T12:06:36.429Z,47.1
2017-11-07T12:07:38.700Z,47.3
2017-11-07T12:08:40.523Z,47.5
2017-11-07T12:09:42.344Z,47.4
2017-11-07T12:10:44.164Z,47.5
2017-11-07T12:11:45.965Z,47.4
2017-11-07T12:12:48.136Z,47.5
2017-11-07T12:13:50.303Z,47.6
2017-11-07T12:14:51.415Z,47.4
2017-11-07T12:15:53.212Z,47.5
2017-11-07T12:16:54.687Z,47.7
2017-11-07T12:17:56.262Z,47.5
2017-11-07T12:18:57.743Z,47.7
2017-11-07T12:19:59.543Z,47.7
2017-11-07T12:21:01.005Z,47.3
2017-11-07T12:22:02.797Z,47.6
2017-11-07T12:23:03.911Z,47.6
2017-11-07T12:24:05.365Z,47.6
2017-11-07T12:25:07.190Z,47.4
2017-11-07T12:26:08.671Z,47.6
2017-11-07T12:27:10.474Z,47.2
2017-11-07T12:28:12.301Z,47.3
2017-11-07T12:29:14.095Z,47.6
2017-11-07T12:30:15.923Z,47.6
2017-11-07T12:31:18.085Z,47.6
2017-11-07T12:32:19.191Z,47.7
2017-11-07T12:33:21.011Z,47.6
2017-11-07T12:34:22.829Z,47.7
2017-11-07T12:35:24.307Z,47.6
2017-11-07T12:36:26.472Z,47.6
2017-11-07T12:37:27.930Z,47.6
2017-11-07T12:38:29.036Z,47.5
2017-11-07T12:39:30.854Z,47.3
2017-11-07T12:40:33.019Z,47.6
2017-11-07T12:41:34.837Z,47.6
2017-11-07T12:42:36.339Z,47.6
2017-11-07T12:43:38.501Z,47.6
2017-11-07T12:44:39.957Z,47.6
2017-11-07T12:45:41.409Z,47.6
2017-11-07T12:46:43.207Z,47.5
2017-11-07T12:47:45.027Z,47.6
2017-11-07T12:48:47.189Z,47.4
2017-11-07T12:49:49.005Z,47.6
2017-11-07T12:50:50.478Z,47.2
2017-11-07T12:51:52.641Z,47.4
2017-11-07T12:52:54.460Z,47.7
2017-11-07T12:53:56.278Z,47.3
2017-11-07T12:54:58.094Z,47.6
2017-11-07T12:56:00.258Z,47.4
2017-11-07T12:57:02.074Z,47.6
2017-11-07T12:58:04.240Z,47.6
2017-11-07T12:59:06.403Z,47.7
2017-11-07T13:00:08.566Z,47.6
2017-11-07T13:01:10.386Z,47.6
2017-11-07T13:02:11.511Z,47.7
2017-11-07T13:03:13.329Z,47.5
2017-11-07T13:04:15.494Z,47.5
2017-11-07T13:05:16.969Z,47.3
2017-11-07T13:06:18.785Z,47.5
2017-11-07T13:07:19.919Z,47.3
2017-11-07T13:08:21.395Z,47.5
2017-11-07T13:09:23.218Z,47.5
2017-11-07T13:10:24.704Z,47.3
2017-11-07T13:11:26.915Z,47.5
2017-11-07T13:12:28.716Z,47.5
2017-11-07T13:13:30.191Z,47.4
2017-11-07T13:14:31.668Z,47.3
2017-11-07T13:15:33.205Z,47.5
2017-11-07T13:16:34.662Z,47.4
2017-11-07T13:17:36.143Z,47.5
2017-11-07T13:18:37.987Z,47.3
2017-11-07T13:19:39.841Z,47.4
2017-11-07T13:20:42.000Z,47.3
2017-11-07T13:21:43.453Z,47.2
2017-11-07T13:22:44.974Z,47.2
2017-11-07T13:23:47.139Z,47.1
2017-11-07T13:24:49.308Z,47.2
2017-11-07T13:25:51.472Z,47.2
2017-11-07T13:26:52.928Z,47.2
2017-11-07T13:27:54.383Z,47.2
2017-11-07T13:28:56.203Z,47.3
2017-11-07T13:29:57.659Z,47.3
2017-11-07T13:30:59.477Z,46.9
2017-11-07T13:32:01.644Z,46.9
2017-11-07T13:33:03.113Z,46.9
2017-11-07T13:34:04.914Z,47.4
2017-11-07T13:35:06.371Z,47.1
2017-11-07T13:36:08.191Z,47.2
2017-11-07T13:37:10.017Z,47
2017-11-07T13:38:12.173Z,47.2
2017-11-07T13:39:14.354Z,47.1
2017-11-07T13:40:16.169Z,47
2017-11-07T13:41:17.640Z,47.2
2017-11-07T13:42:19.858Z,47.1
2017-11-07T13:43:22.023Z,47.2
2017-11-07T13:44:23.840Z,47.1
2017-11-07T13:45:25.320Z,47.1
2017-11-07T13:46:27.141Z,47
2017-11-07T13:47:28.645Z,46.6
2017-11-07T13:48:30.100Z,47.2
2017-11-07T13:49:31.896Z,47